Time;durP1;ratioP1;P1;durP2;ratioP2;P2;SDS_P1;SDS_P2;PMS_P1;PMS_P2;Temp;Humidity;BMP_temperature;BMP_pressure;BME280_temperature;BME280_humidity;BME280_pressure;Samples;Min_cycle;Max_cycle;Signal;HPM_P1;HPM_P2
2022/02/17 00:02:08;;;;;;;3.28;0.75;;;19.50;78.90;;;;;;5009954;28;95801;-55
2022/02/17 00:04:38;;;;;;;3.08;0.80;;;19.50;77.70;;;;;;5014238;28;96958;-55
2022/02/17 00:07:09;;;;;;;2.13;0.65;;;19.70;77.00;;;;;;5009639;28;96107;-56
2022/02/17 00:09:39;;;;;;;3.83;0.50;;;19.70;76.60;;;;;;5007545;28;96019;-53
2022/02/17 00:12:11;;;;;;;4.80;0.90;;;19.80;76.50;;;;;;5013842;28;95779;-55
2022/02/17 00:14:41;;;;;;;0.70;0.50;;;19.90;76.20;;;;;;5009161;28;95933;-56
2022/02/17 00:17:11;;;;;;;2.83;0.73;;;19.90;76.70;;;;;;5001907;28;97199;-55
2022/02/17 00:19:43;;;;;;;1.02;0.70;;;20.00;75.00;;;;;;5010618;28;96414;-56
2022/02/17 00:22:13;;;;;;;1.77;0.83;;;20.00;73.30;;;;;;5013672;28;95686;-55
2022/02/17 00:24:44;;;;;;;3.67;0.90;;;19.90;74.60;;;;;;5018898;28;95879;-56
2022/02/17 00:27:14;;;;;;;;;;;20.00;75.30;;;;;;5012756;28;95951;-56
2022/02/17 00:29:44;;;;;;;3.38;0.80;;;20.10;75.00;;;;;;5011881;28;95908;-55
2022/02/17 00:32:17;;;;;;;3.13;0.90;;;20.30;75.10;;;;;;5012947;28;97505;-56
2022/02/17 00:34:48;;;;;;;3.15;1.08;;;20.40;75.40;;;;;;5021264;28;98278;-57
2022/02/17 00:37:20;;;;;;;3.08;0.93;;;20.50;74.00;;;;;;5017988;28;96040;-56
2022/02/17 00:39:52;;;;;;;2.97;1.08;;;20.50;74.60;;;;;;5018944;28;95296;-56
2022/02/17 00:42:22;;;;;;;2.80;1.20;;;20.60;73.70;;;;;;5025673;28;95726;-55
2022/02/17 00:44:54;;;;;;;1.10;0.70;;;20.80;73.60;;;;;;5019621;28;101295;-54
2022/02/17 00:47:24;;;;;;;3.00;0.70;;;20.80;68.20;;;;;;5013995;28;97241;-56
2022/02/17 00:49:56;;;;;;;;;;;20.60;72.40;;;;;;5013243;28;96143;-56
2022/02/17 00:52:31;;;;;;;2.20;0.98;;;20.70;73.30;;;;;;5026839;28;95387;-56
2022/02/17 00:55:05;;;;;;;3.80;1.10;;;21.00;73.10;;;;;;5023334;28;95871;-56
2022/02/17 00:57:36;;;;;;;2.35;0.70;;;21.10;72.80;;;;;;5015109;28;96112;-54
2022/02/17 01:00:07;;;;;;;3.97;1.13;;;21.30;72.70;;;;;;5013471;28;95455;-53
2022/02/17 01:02:39;;;;;;;3.95;0.90;;;21.30;70.50;;;;;;5015478;28;95974;-56
2022/02/17 01:05:10;;;;;;;2.30;0.82;;;21.30;71.50;;;;;;5001993;28;98650;-56
2022/02/17 01:07:43;;;;;;;2.15;0.85;;;21.40;71.20;;;;;;5018340;28;96123;-53
2022/02/17 01:10:15;;;;;;;1.65;0.60;;;21.50;71.10;;;;;;5015848;28;95290;-56
2022/02/17 01:12:46;;;;;;;2.20;0.98;;;21.50;70.70;;;;;;5014653;28;95550;-54
2022/02/17 01:15:17;;;;;;;;;;;21.30;69.80;;;;;;4992606;27;99055;-56
2022/02/17 01:17:47;;;;;;;2.60;0.77;;;21.30;70.60;;;;;;5012649;28;101977;-55
2022/02/17 01:20:17;;;;;;;;;;;21.20;70.80;;;;;;5025897;28;95943;-58
2022/02/17 01:22:49;;;;;;;3.50;1.00;;;21.40;71.70;;;;;;5011774;28;98013;-54
2022/02/17 01:25:18;;;;;;;;;;;21.40;69.20;;;;;;4995018;28;98160;-55
2022/02/17 01:27:51;;;;;;;2.13;1.15;;;21.70;70.90;;;;;;5008812;28;95475;-56
2022/02/17 01:30:24;;;;;;;3.13;0.85;;;21.80;70.50;;;;;;5007873;28;95626;-55
2022/02/17 01:32:57;;;;;;;1.60;1.00;;;21.90;69.80;;;;;;5004498;28;96105;-54
2022/02/17 01:35:31;;;;;;;2.28;0.50;;;22.00;70.40;;;;;;5008762;28;96095;-55
2022/02/17 01:38:06;;;;;;;1.58;0.47;;;21.90;67.20;;;;;;5013591;27;97439;-52
2022/02/17 01:40:37;;;;;;;0.70;0.68;;;22.00;68.30;;;;;;5009069;28;95867;-51
2022/02/17 01:43:10;;;;;;;1.23;0.68;;;22.20;68.70;;;;;;5022036;28;95720;-52
2022/02/17 01:45:40;;;;;;;1.38;0.73;;;22.20;67.80;;;;;;4998014;28;96481;-53
2022/02/17 01:48:12;;;;;;;2.30;0.93;;;22.20;67.50;;;;;;5016509;28;97623;-55
2022/02/17 01:50:48;;;;;;;2.55;0.65;;;22.30;68.10;;;;;;4992075;28;95818;-53
2022/02/17 01:53:20;;;;;;;7.00;0.60;;;22.30;67.80;;;;;;5012406;28;96283;-57
2022/02/17 01:55:55;;;;;;;0.90;0.80;;;22.30;65.90;;;;;;5008112;28;96712;-56
2022/02/17 01:58:29;;;;;;;1.33;0.70;;;22.10;65.70;;;;;;5021948;28;96319;-57
2022/02/17 02:01:07;;;;;;;;;;;22.20;64.40;;;;;;4991929;28;97148;-57
2022/02/17 02:03:39;;;;;;;3.38;0.88;;;22.20;67.20;;;;;;5027690;28;95360;-55
2022/02/17 02:06:10;;;;;;;;;;;22.40;64.50;;;;;;5005562;28;98032;-55
2022/02/17 02:09:16;;;;;;;1.90;0.70;;;22.50;65.10;;;;;;5011163;28;95396;-57
2022/02/17 02:12:04;;;;;;;4.38;1.13;;;22.50;66.20;;;;;;5007986;28;96327;-53
2022/02/17 02:14:37;;;;;;;1.40;0.82;;;22.40;66.20;;;;;;5020610;28;95705;-52
2022/02/17 02:17:19;;;;;;;;;;;22.20;64.60;;;;;;5014011;28;96102;-52
2022/02/17 02:19:59;;;;;;;1.40;0.75;;;22.40;65.80;;;;;;5018772;28;97658;-51
2022/02/17 02:22:32;;;;;;;1.30;0.70;;;22.50;65.70;;;;;;4987100;28;95865;-56
2022/02/17 02:25:03;;;;;;;1.08;0.40;;;22.40;63.80;;;;;;5005475;28;95886;-55
2022/02/17 02:27:37;;;;;;;1.63;0.80;;;22.20;64.50;;;;;;5018668;28;96953;-56
2022/02/17 02:30:12;;;;;;;3.30;0.98;;;22.20;62.30;;;;;;5007424;28;98484;-55
2022/02/17 02:32:45;;;;;;;0.80;0.68;;;21.90;62.60;;;;;;5020096;28;95769;-55
2022/02/17 02:35:20;;;;;;;1.55;0.70;;;21.90;64.90;;;;;;5006820;28;95724;-54
2022/02/17 02:37:51;;;;;;;1.35;0.70;;;22.20;65.40;;;;;;4995643;28;98511;-56
2022/02/17 02:40:27;;;;;;;2.30;0.93;;;22.50;65.10;;;;;;5004190;28;97348;-57
2022/02/17 02:43:01;;;;;;;1.42;0.70;;;22.60;65.50;;;;;;5012109;28;95728;-55
2022/02/17 02:45:33;;;;;;;0.70;0.47;;;22.70;64.70;;;;;;5015082;27;96810;-55
2022/02/17 02:48:10;;;;;;;2.42;0.70;;;22.70;63.00;;;;;;5018141;27;96291;-54
2022/02/17 02:50:41;;;;;;;1.48;0.65;;;22.80;63.40;;;;;;5023671;28;95848;-54
2022/02/17 02:53:18;;;;;;;1.80;0.70;;;22.80;62.80;;;;;;5020060;28;95507;-54
2022/02/17 02:55:50;;;;;;;1.00;0.80;;;22.70;61.50;;;;;;5013536;28;95907;-56
2022/02/17 02:58:23;;;;;;;3.00;0.75;;;22.70;63.60;;;;;;5015541;28;96677;-55
2022/02/17 03:00:53;;;;;;;2.47;0.80;;;22.90;54.70;;;;;;5004359;27;95588;-56
2022/02/17 03:03:24;;;;;;;;;;;22.90;60.30;;;;;;5017017;28;95760;-54
2022/02/17 03:05:54;;;;;;;2.78;0.70;;;23.00;60.00;;;;;;5018330;28;96164;-55
2022/02/17 03:08:25;;;;;;;2.80;0.75;;;23.00;59.00;;;;;;5016345;28;97800;-55
2022/02/17 03:10:59;;;;;;;3.60;0.77;;;23.10;60.80;;;;;;5022563;28;95300;-54
2022/02/17 03:13:40;;;;;;;0.63;0.60;;;23.10;60.00;;;;;;5006480;28;97204;-57
2022/02/17 03:16:10;;;;;;;;;;;23.20;60.90;;;;;;4997919;28;96584;-61
2022/02/17 03:18:41;;;;;;;1.85;0.85;;;23.40;60.70;;;;;;4997888;28;97957;-56
2022/02/17 03:21:16;;;;;;;1.65;0.47;;;23.40;60.10;;;;;;5004349;28;98096;-55
2022/02/17 03:23:46;;;;;;;1.42;0.70;;;23.30;60.10;;;;;;4992957;28;95434;-57
2022/02/17 03:26:20;;;;;;;3.05;0.75;;;23.30;59.70;;;;;;5024795;28;96056;-57
2022/02/17 03:29:00;;;;;;;4.35;0.95;;;23.30;60.10;;;;;;5005915;28;96332;-55
2022/02/17 03:31:32;;;;;;;0.88;0.55;;;23.30;53.80;;;;;;5002290;27;97710;-60
2022/02/17 03:34:09;;;;;;;1.20;0.60;;;23.40;60.40;;;;;;5010675;28;95516;-54
2022/02/17 03:36:40;;;;;;;2.35;0.90;;;23.20;61.20;;;;;;5001694;28;95818;-56
2022/02/17 03:39:14;;;;;;;1.02;0.63;;;23.50;59.80;;;;;;5005972;28;96227;-54
2022/02/17 03:42:09;;;;;;;2.22;0.90;;;23.50;60.00;;;;;;5003711;28;95722;-55
2022/02/17 03:44:45;;;;;;;1.88;0.73;;;23.70;58.90;;;;;;5002283;28;95853;-52
2022/02/17 03:47:27;;;;;;;1.30;0.77;;;23.80;59.60;;;;;;5011312;28;96376;-54
2022/02/17 03:50:06;;;;;;;0.98;0.50;;;23.50;58.80;;;;;;5017095;28;98186;-55
2022/02/17 03:52:41;;;;;;;4.38;0.98;;;23.50;56.50;;;;;;5005389;28;97727;-55
2022/02/17 03:55:20;;;;;;;2.85;0.98;;;23.40;59.40;;;;;;4998519;28;96007;-53
2022/02/17 03:57:52;;;;;;;0.85;0.60;;;23.50;59.10;;;;;;5021737;28;95936;-53
2022/02/17 04:00:26;;;;;;;1.98;0.55;;;23.40;57.20;;;;;;5006883;27;98140;-52
2022/02/17 04:03:04;;;;;;;3.13;0.70;;;23.20;58.60;;;;;;5009942;28;95766;-55
2022/02/17 04:05:38;;;;;;;3.40;0.60;;;23.20;57.90;;;;;;5006970;28;96069;-51
2022/02/17 04:08:10;;;;;;;0.90;0.60;;;23.20;57.50;;;;;;5016778;28;95546;-49
2022/02/17 04:10:46;;;;;;;4.30;0.85;;;23.10;50.50;;;;;;5013117;28;96408;-50
2022/02/17 04:13:24;;;;;;;1.30;0.60;;;23.10;56.90;;;;;;5007733;28;96349;-52
2022/02/17 04:15:55;;;;;;;1.73;0.50;;;23.10;56.00;;;;;;5017096;27;95936;-50
2022/02/17 04:18:40;;;;;;;1.02;0.43;;;23.20;56.70;;;;;;5021517;28;95842;-51
2022/02/17 04:21:23;;;;;;;1.52;1.20;;;23.20;57.10;;;;;;5009327;28;95914;-49
2022/02/17 04:24:00;;;;;;;2.60;0.45;;;23.40;55.90;;;;;;5023471;28;95972;-48
2022/02/17 04:26:34;;;;;;;2.03;0.80;;;23.50;55.70;;;;;;5010683;28;96246;-50
2022/02/17 04:29:21;;;;;;;1.13;0.60;;;23.40;55.20;;;;;;5012191;28;95906;-49
2022/02/17 04:31:56;;;;;;;1.10;0.73;;;23.30;55.30;;;;;;4996654;28;98940;-48
2022/02/17 04:34:28;;;;;;;2.08;0.77;;;23.20;55.40;;;;;;5020980;28;95874;-52
2022/02/17 04:37:18;;;;;;;2.72;0.63;;;23.10;55.90;;;;;;5011040;28;95925;-54
2022/02/17 04:39:49;;;;;;;1.80;0.70;;;23.20;56.30;;;;;;5014178;28;95475;-54
2022/02/17 04:42:24;;;;;;;4.05;1.20;;;23.30;55.90;;;;;;5009757;28;98214;-51
2022/02/17 04:44:58;;;;;;;1.17;0.70;;;23.30;55.40;;;;;;5014133;28;97683;-51
2022/02/17 04:47:28;;;;;;;2.78;0.80;;;23.30;47.60;;;;;;5015886;28;95749;-52
2022/02/17 04:50:00;;;;;;;9.63;0.95;;;23.10;55.00;;;;;;5026784;28;95830;-53
2022/02/17 04:52:33;;;;;;;4.90;0.80;;;23.10;55.60;;;;;;5006410;28;98331;-47
2022/02/17 04:55:05;;;;;;;2.28;0.65;;;23.20;55.40;;;;;;5021099;28;95945;-53
2022/02/17 04:57:36;;;;;;;2.25;0.90;;;23.20;54.30;;;;;;5016162;28;95641;-55
2022/02/17 05:00:08;;;;;;;1.70;0.50;;;23.30;54.80;;;;;;5016781;28;95755;-53
2022/02/17 05:02:40;;;;;;;2.42;0.82;;;23.40;55.00;;;;;;5007803;28;96314;-56
2022/02/17 05:05:30;;;;;;;3.58;1.15;;;23.40;54.70;;;;;;5021984;28;96038;-52
2022/02/17 05:08:02;;;;;;;4.00;1.13;;;23.40;54.70;;;;;;5021096;28;96963;-53
2022/02/17 05:10:36;;;;;;;2.28;1.10;;;23.40;55.00;;;;;;5004171;28;96248;-56
2022/02/17 05:13:07;;;;;;;2.53;0.90;;;23.40;55.80;;;;;;5025980;27;95815;-55
2022/02/17 05:15:39;;;;;;;1.33;0.98;;;23.40;55.40;;;;;;5011642;27;96247;-55
2022/02/17 05:18:15;;;;;;;8.18;0.98;;;23.50;55.80;;;;;;5021166;28;95967;-56
2022/02/17 05:20:46;;;;;;;5.07;1.00;;;23.40;56.50;;;;;;4996214;28;96141;-56
2022/02/17 05:23:42;;;;;;;3.60;1.10;;;23.40;56.70;;;;;;5006628;28;95775;-54
2022/02/17 05:26:44;;;;;;;1.55;1.00;;;23.40;57.50;;;;;;5007755;28;97770;-53
2022/02/17 05:29:37;;;;;;;4.45;1.13;;;23.50;57.80;;;;;;5012516;28;95308;-54
2022/02/17 05:32:29;;;;;;;1.33;1.10;;;23.70;51.20;;;;;;5003804;28;97150;-55
2022/02/17 05:35:18;;;;;;;2.13;1.10;;;23.50;57.50;;;;;;5014209;28;96105;-50
2022/02/17 05:38:15;;;;;;;3.35;1.00;;;23.50;57.50;;;;;;5003202;28;96218;-54
2022/02/17 05:41:18;;;;;;;1.98;0.80;;;23.60;57.50;;;;;;4995911;28;95691;-51
2022/02/17 05:43:54;;;;;;;1.70;0.80;;;23.70;56.90;;;;;;5007968;28;95785;-54
2022/02/17 05:46:25;;;;;;;2.35;0.70;;;23.70;56.40;;;;;;5013773;27;98461;-53
2022/02/17 05:48:57;;;;;;;2.47;0.80;;;23.60;56.70;;;;;;5021690;28;98116;-53
2022/02/17 05:51:28;;;;;;;2.75;0.95;;;23.70;55.40;;;;;;5020831;28;95861;-56
2022/02/17 05:54:01;;;;;;;8.20;1.70;;;23.50;56.60;;;;;;5011392;28;95800;-53
2022/02/17 05:56:32;;;;;;;2.20;0.65;;;23.50;57.40;;;;;;5010955;28;95738;-54
2022/02/17 05:59:02;;;;;;;4.72;1.15;;;23.70;57.20;;;;;;5009648;28;96197;-54
2022/02/17 06:01:34;;;;;;;3.28;0.77;;;23.70;56.70;;;;;;5004280;28;95479;-53
2022/02/17 06:04:06;;;;;;;3.97;1.48;;;23.70;56.40;;;;;;5010529;28;95768;-57
2022/02/17 06:06:36;;;;;;;8.27;1.23;;;23.80;57.50;;;;;;5014237;28;96586;-54
2022/02/17 06:09:08;;;;;;;2.92;0.63;;;23.70;56.50;;;;;;5009860;28;95893;-56
2022/02/17 06:11:39;;;;;;;1.55;0.75;;;23.80;57.00;;;;;;5022992;28;95868;-55
2022/02/17 06:14:10;;;;;;;5.03;1.30;;;23.80;55.50;;;;;;5011244;28;96067;-57
2022/02/17 06:16:41;;;;;;;2.15;0.90;;;23.80;56.90;;;;;;5000469;28;97949;-56
2022/02/17 06:19:11;;;;;;;;;;;23.80;56.80;;;;;;5020362;28;95845;-49
2022/02/17 06:21:42;;;;;;;2.58;1.00;;;23.80;56.90;;;;;;5017497;28;95859;-55
2022/02/17 06:24:13;;;;;;;1.15;0.60;;;23.70;55.70;;;;;;5008299;28;95252;-51
2022/02/17 06:26:43;;;;;;;2.72;0.65;;;23.50;54.70;;;;;;5010576;28;96678;-55
2022/02/17 06:29:14;;;;;;;2.38;0.55;;;23.50;56.10;;;;;;5010569;28;95666;-54
2022/02/17 06:31:47;;;;;;;4.00;0.75;;;23.70;56.00;;;;;;5012803;27;95524;-58
2022/02/17 06:34:20;;;;;;;2.25;0.80;;;23.70;57.10;;;;;;5007512;28;95685;-54
2022/02/17 06:36:50;;;;;;;2.35;0.88;;;23.70;56.10;;;;;;5016618;28;96093;-56
2022/02/17 06:39:22;;;;;;;4.50;1.10;;;23.80;56.90;;;;;;5006439;28;95652;-53
2022/02/17 06:41:52;;;;;;;0.70;0.70;;;23.90;56.80;;;;;;5022149;28;95253;-55
2022/02/17 06:44:22;;;;;;;2.33;1.00;;;23.90;56.60;;;;;;5019282;28;95997;-55
2022/02/17 06:46:54;;;;;;;1.75;0.80;;;23.80;56.70;;;;;;5016400;28;96517;-50
2022/02/17 06:49:24;;;;;;;1.55;0.77;;;23.70;56.30;;;;;;5018746;28;95566;-56
2022/02/17 06:51:54;;;;;;;2.10;0.80;;;23.70;55.50;;;;;;5017140;28;95392;-51
2022/02/17 06:54:27;;;;;;;3.58;1.02;;;23.60;54.50;;;;;;5019176;28;96001;-55
2022/02/17 06:56:58;;;;;;;3.92;0.70;;;23.60;55.70;;;;;;5020196;28;96682;-53
2022/02/17 06:59:29;;;;;;;2.17;0.75;;;23.70;56.30;;;;;;5020733;28;95807;-56
2022/02/17 07:02:00;;;;;;;1.85;1.05;;;23.70;56.40;;;;;;5013032;28;95677;-53
2022/02/17 07:04:32;;;;;;;2.13;0.93;;;23.70;56.20;;;;;;5021099;28;95793;-53
2022/02/17 07:07:03;;;;;;;2.58;0.80;;;23.70;56.30;;;;;;5019809;28;96580;-57
2022/02/17 07:09:35;;;;;;;1.60;0.73;;;23.70;54.20;;;;;;5015828;28;96149;-56
2022/02/17 07:12:05;;;;;;;;;;;23.50;55.20;;;;;;5023803;28;95997;-52
2022/02/17 07:14:37;;;;;;;4.18;1.23;;;23.50;56.00;;;;;;5025339;28;95820;-54
2022/02/17 07:17:10;;;;;;;2.85;0.80;;;23.50;55.70;;;;;;5012886;28;95893;-52
2022/02/17 07:19:41;;;;;;;2.17;0.80;;;23.50;56.20;;;;;;5021560;28;95705;-51
2022/02/17 07:22:12;;;;;;;1.55;0.60;;;23.60;54.80;;;;;;5023094;28;95772;-56
2022/02/17 07:24:43;;;;;;;2.17;0.85;;;23.60;55.50;;;;;;5017811;28;95233;-50
2022/02/17 07:27:14;;;;;;;1.27;0.90;;;23.70;55.30;;;;;;5017674;28;95994;-56
2022/02/17 07:29:44;;;;;;;5.63;1.03;;;23.70;55.50;;;;;;5017728;28;95251;-54
2022/02/17 07:32:16;;;;;;;1.95;0.88;;;23.60;55.20;;;;;;5003361;28;95843;-52
2022/02/17 07:34:47;;;;;;;3.47;1.45;;;23.60;48.50;;;;;;5018723;27;95803;-53
2022/02/17 07:37:17;;;;;;;2.33;0.90;;;23.50;55.50;;;;;;5010454;28;95888;-50
2022/02/17 07:39:49;;;;;;;4.00;1.63;;;23.60;55.90;;;;;;5008215;28;95811;-53
2022/02/17 07:42:20;;;;;;;6.57;1.40;;;23.70;56.30;;;;;;5005941;28;95996;-55
2022/02/17 07:44:56;;;;;;;3.00;1.30;;;23.70;56.40;;;;;;5021683;28;95951;-56
2022/02/17 07:47:27;;;;;;;2.40;1.17;;;23.70;54.40;;;;;;5006497;28;96668;-55
2022/02/17 07:49:57;;;;;;;2.03;1.00;;;23.50;55.90;;;;;;4996636;28;97129;-53
2022/02/17 07:52:28;;;;;;;1.98;1.00;;;23.50;55.50;;;;;;5019792;28;95389;-55
2022/02/17 07:55:00;;;;;;;3.10;1.23;;;23.50;54.90;;;;;;5009075;28;95366;-53
2022/02/17 07:57:32;;;;;;;3.47;1.33;;;23.40;55.00;;;;;;5005607;28;96625;-55
2022/02/17 08:00:07;;;;;;;3.05;1.15;;;23.40;56.00;;;;;;5017344;28;98193;-57
2022/02/17 08:02:43;;;;;;;1.50;1.13;;;23.40;47.50;;;;;;5015460;28;96196;-54
2022/02/17 08:05:13;;;;;;;3.47;0.95;;;23.30;56.20;;;;;;4994824;28;95893;-53
2022/02/17 08:07:47;;;;;;;3.15;1.02;;;23.40;56.20;;;;;;5019165;28;96507;-56
2022/02/17 08:10:23;;;;;;;3.92;1.10;;;23.40;56.10;;;;;;5018616;28;96368;-52
2022/02/17 08:12:55;;;;;;;1.85;0.90;;;23.40;55.20;;;;;;5016288;28;95736;-56
2022/02/17 08:15:26;;;;;;;3.25;0.90;;;23.40;48.40;;;;;;5007308;28;95794;-53
2022/02/17 08:17:57;;;;;;;5.65;1.40;;;23.30;54.70;;;;;;5017520;28;97903;-53
2022/02/17 08:20:29;;;;;;;2.80;1.05;;;23.30;55.20;;;;;;5017808;28;96170;-54
2022/02/17 08:22:59;;;;;;;2.67;0.95;;;23.40;55.90;;;;;;5018177;28;96461;-56
2022/02/17 08:25:29;;;;;;;1.67;1.20;;;23.50;56.20;;;;;;5016700;28;96321;-56
2022/02/17 08:28:00;;;;;;;2.58;0.95;;;23.50;56.20;;;;;;5014954;28;95844;-54
2022/02/17 08:30:34;;;;;;;2.08;1.00;;;23.40;54.90;;;;;;5006429;28;96901;-54
2022/02/17 08:33:07;;;;;;;2.03;1.00;;;23.20;55.80;;;;;;5015626;28;95414;-56
2022/02/17 08:35:39;;;;;;;3.33;1.08;;;23.40;56.30;;;;;;5016986;28;96109;-53
2022/02/17 08:38:14;;;;;;;2.78;1.10;;;23.40;55.50;;;;;;5016797;28;95907;-56
2022/02/17 08:40:46;;;;;;;4.57;1.48;;;23.40;56.20;;;;;;5016837;28;95944;-55
2022/02/17 08:43:19;;;;;;;1.83;1.30;;;23.40;56.60;;;;;;5016482;28;96024;-56
2022/02/17 08:45:51;;;;;;;5.22;1.58;;;23.40;56.90;;;;;;5006822;28;96366;-54
2022/02/17 08:48:22;;;;;;;4.40;1.80;;;23.20;56.00;;;;;;5016346;28;95982;-49
2022/02/17 08:50:53;;;;;;;6.28;1.70;;;23.10;57.20;;;;;;5020337;28;95954;-52
2022/02/17 08:53:28;;;;;;;3.85;1.60;;;23.10;57.40;;;;;;5018775;28;95804;-56
2022/02/17 08:55:59;;;;;;;4.32;1.60;;;23.10;57.70;;;;;;5007367;28;95965;-57
2022/02/17 08:58:29;;;;;;;;;;;23.10;57.80;;;;;;5018418;28;95957;-55
2022/02/17 09:01:00;;;;;;;9.95;2.13;;;23.10;58.10;;;;;;5012240;28;96235;-56
2022/02/17 09:03:33;;;;;;;8.52;2.65;;;23.10;58.30;;;;;;5017118;28;97020;-55
2022/02/17 09:06:04;;;;;;;7.63;2.38;;;23.00;58.40;;;;;;5017440;28;96646;-53
2022/02/17 09:08:50;;;;;;;7.63;2.10;;;23.00;58.80;;;;;;5016824;28;96647;-55
2022/02/17 09:11:22;;;;;;;7.88;2.95;;;22.90;58.90;;;;;;5016776;28;95937;-55
2022/02/17 09:13:55;;;;;;;10.20;2.65;;;22.90;59.10;;;;;;5017005;28;95922;-55
2022/02/17 09:16:27;;;;;;;12.60;3.03;;;22.70;59.00;;;;;;5011058;28;98015;-56
2022/02/17 09:18:59;;;;;;;10.52;2.85;;;22.70;59.60;;;;;;5017358;28;96274;-57
2022/02/17 09:21:36;;;;;;;12.80;3.10;;;22.70;59.90;;;;;;5004357;28;98321;-53
2022/02/17 09:24:08;;;;;;;12.35;2.75;;;22.80;59.90;;;;;;5018064;28;95681;-57
2022/02/17 09:26:38;;;;;;;11.52;3.03;;;22.70;59.80;;;;;;5018619;28;96016;-57
2022/02/17 09:29:11;;;;;;;7.80;2.92;;;22.70;60.10;;;;;;5018411;28;96666;-58
2022/02/17 09:32:02;;;;;;;12.25;2.55;;;22.60;60.30;;;;;;5011317;28;98469;-54
2022/02/17 09:34:37;;;;;;;9.30;3.03;;;22.60;60.40;;;;;;5020100;28;95687;-58
2022/02/17 09:37:07;;;;;;;7.50;2.35;;;22.50;60.70;;;;;;5003268;28;95814;-59
2022/02/17 09:39:38;;;;;;;13.52;2.83;;;22.40;60.80;;;;;;5020178;28;95926;-59
2022/02/17 09:42:09;;;;;;;14.13;2.95;;;22.30;60.70;;;;;;5017479;27;96633;-60
2022/02/17 09:44:40;;;;;;;;;;;22.20;61.30;;;;;;5019753;28;95319;-59
2022/02/17 09:47:15;;;;;;;16.25;2.90;;;22.20;60.80;;;;;;5006139;28;96235;-59
2022/02/17 09:49:46;;;;;;;14.55;3.53;;;22.10;61.40;;;;;;5019608;28;95880;-59
2022/02/17 09:52:19;;;;;;;8.02;2.63;;;22.00;61.50;;;;;;5016236;28;97026;-59
2022/02/17 09:54:51;;;;;;;14.93;3.45;;;22.00;61.60;;;;;;5019749;28;96056;-60
2022/02/17 09:57:22;;;;;;;10.88;2.55;;;21.90;61.90;;;;;;5017425;27;95976;-59
2022/02/17 09:59:56;;;;;;;14.20;3.05;;;21.90;62.00;;;;;;5016959;28;95927;-58
2022/02/17 10:02:28;;;;;;;13.63;3.53;;;21.90;62.00;;;;;;5010948;28;96757;-58
2022/02/17 10:04:58;;;;;;;;;;;21.90;61.80;;;;;;5019134;28;95345;-58
2022/02/17 10:07:31;;;;;;;15.65;3.53;;;21.90;62.20;;;;;;5020261;28;95338;-58
2022/02/17 10:10:08;;;;;;;;;;;22.00;62.20;;;;;;5016272;28;95971;-58
2022/02/17 10:13:04;;;;;;;14.63;3.58;;;22.00;61.90;;;;;;5018034;28;96693;-59
2022/02/17 10:15:39;;;;;;;10.38;2.33;;;22.00;54.60;;;;;;5012236;28;96873;-59
2022/02/17 10:18:13;;;;;;;9.40;2.83;;;21.80;62.10;;;;;;5017584;28;95928;-60
2022/02/17 10:20:55;;;;;;;12.15;3.45;;;21.70;62.70;;;;;;5019039;28;96471;-59
2022/02/17 10:23:31;;;;;;;10.38;3.45;;;21.60;62.70;;;;;;5020232;28;95264;-60
2022/02/17 10:26:04;;;;;;;15.10;3.50;;;21.70;63.00;;;;;;5016111;28;96131;-56
2022/02/17 10:28:41;;;;;;;11.93;3.15;;;21.70;63.10;;;;;;5016987;28;96086;-57
2022/02/17 10:31:25;;;;;;;12.77;3.00;;;21.70;63.10;;;;;;5009422;28;96413;-58
2022/02/17 10:33:59;;;;;;;12.93;3.38;;;21.80;63.10;;;;;;5017610;28;95351;-56
2022/02/17 10:36:33;;;;;;;13.98;3.35;;;21.80;62.90;;;;;;5016499;28;95242;-56
2022/02/17 10:39:15;;;;;;;9.57;2.47;;;21.80;62.90;;;;;;5016798;28;96404;-57
2022/02/17 10:41:57;;;;;;;12.82;3.20;;;21.80;63.00;;;;;;5018261;28;95861;-56
2022/02/17 10:44:33;;;;;;;12.55;2.72;;;21.80;62.80;;;;;;5017416;28;95769;-55
2022/02/17 10:47:14;;;;;;;9.43;2.75;;;21.80;63.10;;;;;;5008558;28;95858;-54
2022/02/17 10:49:50;;;;;;;12.13;4.03;;;21.80;63.00;;;;;;5017631;28;95870;-56
2022/02/17 10:52:35;;;;;;;11.98;3.63;;;21.80;63.20;;;;;;5017150;28;96116;-53
2022/02/17 10:55:22;;;;;;;12.45;2.95;;;21.70;63.20;;;;;;5015519;28;97640;-57
2022/02/17 10:57:53;;;;;;;8.27;2.88;;;21.70;63.30;;;;;;5017585;28;95963;-55
2022/02/17 11:00:28;;;;;;;14.00;3.60;;;21.70;56.50;;;;;;5010892;28;96564;-56
2022/02/17 11:03:03;;;;;;;12.02;3.20;;;21.60;63.60;;;;;;5016183;28;103015;-56
2022/02/17 11:05:55;;;;;;;9.20;2.97;;;21.60;63.80;;;;;;5015747;28;96342;-54
2022/02/17 11:08:26;;;;;;;11.38;3.35;;;21.60;63.80;;;;;;5017537;28;95892;-55
2022/02/17 11:10:59;;;;;;;10.05;2.88;;;21.50;63.90;;;;;;5016722;27;96250;-53
2022/02/17 11:13:33;;;;;;;9.95;3.05;;;21.50;64.10;;;;;;5017130;28;96458;-55
2022/02/17 11:16:11;;;;;;;13.15;2.97;;;21.50;64.00;;;;;;5008242;28;98917;-56
2022/02/17 11:18:43;;;;;;;13.93;3.58;;;21.50;64.20;;;;;;5015026;28;95926;-56
2022/02/17 11:21:18;;;;;;;13.25;3.22;;;21.40;64.30;;;;;;5014637;28;95802;-56
2022/02/17 11:23:48;;;;;;;12.60;2.70;;;21.40;64.40;;;;;;5016218;28;96596;-57
2022/02/17 11:26:31;;;;;;;15.05;3.83;;;21.30;64.60;;;;;;5015918;28;95730;-57
2022/02/17 11:29:36;;;;;;;11.57;2.88;;;21.20;63.90;;;;;;5016651;28;95902;-56
2022/02/17 11:32:08;;;;;;;17.42;3.80;;;21.10;64.60;;;;;;4997885;28;95448;-56
2022/02/17 11:34:50;;;;;;;10.70;3.17;;;21.20;64.90;;;;;;5017259;28;96037;-57
2022/02/17 11:37:22;;;;;;;;;;;21.30;64.70;;;;;;5017975;28;95716;-57
2022/02/17 11:40:00;;;;;;;12.70;3.07;;;21.40;64.10;;;;;;5019647;28;96463;-57
2022/02/17 11:42:36;;;;;;;12.35;3.15;;;21.50;63.90;;;;;;5017715;28;96658;-57
2022/02/17 11:45:11;;;;;;;14.13;3.70;;;21.50;63.80;;;;;;5015757;28;96471;-55
2022/02/17 11:48:05;;;;;;;15.63;3.60;;;21.40;63.70;;;;;;5015359;28;95902;-58
2022/02/17 11:50:43;;;;;;;11.60;3.33;;;21.50;63.40;;;;;;5009917;28;95948;-55
2022/02/17 11:53:33;;;;;;;9.30;2.83;;;21.30;63.00;;;;;;5016183;28;95801;-56
2022/02/17 11:56:07;;;;;;;8.20;3.10;;;21.10;63.70;;;;;;5015532;28;96268;-54
2022/02/17 11:58:51;;;;;;;18.33;3.28;;;21.00;64.00;;;;;;5014865;28;95726;-56
2022/02/17 12:01:25;;;;;;;10.18;2.47;;;20.90;64.40;;;;;;5010173;28;95920;-56
2022/02/17 12:04:14;;;;;;;10.00;3.00;;;20.90;64.90;;;;;;5017099;28;95943;-56
2022/02/17 12:07:27;;;;;;;9.07;3.25;;;20.80;64.70;;;;;;5017449;28;95842;-55
2022/02/17 12:09:59;;;;;;;10.05;3.40;;;20.70;64.40;;;;;;5009458;28;95873;-57
2022/02/17 12:12:38;;;;;;;15.32;2.83;;;20.40;64.90;;;;;;5002548;28;97139;-58
2022/02/17 12:15:14;;;;;;;12.90;3.25;;;20.20;65.60;;;;;;5018987;28;96251;-56
2022/02/17 12:17:47;;;;;;;14.75;3.15;;;20.20;66.20;;;;;;5012891;28;97415;-58
2022/02/17 12:20:20;;;;;;;9.15;3.00;;;20.20;66.30;;;;;;5002826;27;96106;-58
2022/02/17 12:22:53;;;;;;;13.70;3.08;;;20.30;66.40;;;;;;5018902;28;95796;-58
2022/02/17 12:25:30;;;;;;;11.55;3.15;;;20.20;65.90;;;;;;5020283;28;96728;-58
2022/02/17 12:28:06;;;;;;;16.95;3.67;;;20.00;65.90;;;;;;5019026;28;95958;-57
2022/02/17 12:30:52;;;;;;;14.80;3.47;;;19.90;66.40;;;;;;5011547;28;96112;-59
2022/02/17 12:33:29;;;;;;;10.85;2.97;;;19.70;66.70;;;;;;5019189;28;95910;-57
2022/02/17 12:36:11;;;;;;;13.05;3.08;;;19.40;67.70;;;;;;5020257;28;95797;-58
2022/02/17 12:38:43;;;;;;;11.02;2.85;;;19.50;67.70;;;;;;5019891;28;95883;-56
2022/02/17 12:41:17;;;;;;;11.32;2.78;;;19.10;68.20;;;;;;5016599;28;95949;-58
2022/02/17 12:43:48;;;;;;;15.02;3.63;;;18.90;68.40;;;;;;5017696;28;95784;-57
2022/02/17 12:46:19;;;;;;;;;;;18.60;69.60;;;;;;5012934;27;95785;-59
2022/02/17 12:48:49;;;;;;;17.48;3.65;;;18.60;70.30;;;;;;5021094;28;96447;-61
2022/02/17 12:51:36;;;;;;;17.23;3.10;;;18.60;70.40;;;;;;5018937;28;95771;-58
2022/02/17 12:54:15;;;;;;;13.90;3.42;;;18.80;70.60;;;;;;5021943;28;95903;-60
2022/02/17 12:56:47;;;;;;;9.40;3.15;;;18.80;70.60;;;;;;5018503;28;95935;-59
2022/02/17 12:59:18;;;;;;;16.75;3.05;;;18.80;71.00;;;;;;5017426;28;96247;-58
2022/02/17 13:01:56;;;;;;;16.15;3.45;;;18.60;70.70;;;;;;5010285;28;97244;-59
2022/02/17 13:04:30;;;;;;;10.82;2.55;;;18.60;72.40;;;;;;5018164;28;95819;-59
2022/02/17 13:07:02;;;;;;;;;;;18.80;72.30;;;;;;5020615;28;97116;-58
2022/02/17 13:09:35;;;;;;;15.18;3.22;;;19.00;71.90;;;;;;5021513;28;96446;-59
2022/02/17 13:12:12;;;;;;;13.10;3.60;;;19.10;71.30;;;;;;5017633;28;95921;-57
2022/02/17 13:14:46;;;;;;;11.07;3.30;;;19.00;71.30;;;;;;5017635;28;96000;-60
2022/02/17 13:17:23;;;;;;;9.90;2.30;;;19.00;71.70;;;;;;5010974;28;96632;-59
2022/02/17 13:19:57;;;;;;;14.32;3.50;;;19.10;71.70;;;;;;5018707;28;96688;-60
2022/02/17 13:22:40;;;;;;;11.00;3.50;;;19.10;71.60;;;;;;5016693;28;96475;-60
2022/02/17 13:25:12;;;;;;;12.73;3.20;;;19.10;71.60;;;;;;5019889;28;95691;-60
2022/02/17 13:27:45;;;;;;;10.10;3.10;;;19.20;71.30;;;;;;5015511;28;96351;-59